Time;durP1;ratioP1;P1;durP2;ratioP2;P2;SDS_P1;SDS_P2;PMS_P1;PMS_P2;Temp;Humidity;BMP_temperature;BMP_pressure;BME280_temperature;BME280_humidity;BME280_pressure;Samples;Min_cycle;Max_cycle;Signal;HPM_P1;HPM_P2
2022/04/06 00:01:31;;;;;;;;;;;;;;;10.77;52.22;99309.34;4446927;32;19989;-74
2022/04/06 00:03:58;;;;;;;;;;;;;;;10.80;51.96;99306.78;4447987;32;19985;-78
2022/04/06 00:06:25;;;;;;;;;;;;;;;10.87;52.17;99304.22;4446814;32;19977;-79
2022/04/06 00:09:12;;;;;;;;;;;;;;;10.91;52.30;99315.47;4447352;32;19965;-73
2022/04/06 00:11:39;;;;;;;;;;;;;;;10.80;52.40;99311.94;4446798;32;20018;-82
2022/04/06 00:14:05;;;;;;;;;;;;;;;10.83;52.09;99317.16;4447301;32;20030;-82
2022/04/06 00:16:32;;;;;;;;;;;;;;;10.83;51.69;99311.97;4447662;32;19977;-79
2022/04/06 00:18:59;;;;;;;;;;;;;;;10.76;51.85;99310.22;4446911;32;19972;-72
2022/04/06 00:21:27;;;;;;;;;;;;;;;10.62;51.98;99318.72;4447136;32;20054;-73
2022/04/06 00:23:56;;;;;;;;;;;;;;;10.75;52.01;99317.06;4431918;32;19985;-76
2022/04/06 00:26:25;;;;;;;;;;;;;;;10.82;51.98;99325.78;4447808;32;20299;-78
2022/04/06 00:28:52;;;;;;;;;;;;;;;10.79;51.95;99323.16;4446751;32;19980;-77
2022/04/06 00:31:19;;;;;;;;;;;;;;;10.64;51.76;99327.38;4433271;32;19997;-79
2022/04/06 00:33:47;;;;;;;;;;;;;;;10.66;51.92;99325.66;4447068;32;19985;-80
2022/04/06 00:36:14;;;;;;;;;;;;;;;10.54;52.06;99325.56;4446754;32;20035;-80
2022/04/06 00:38:41;;;;;;;;;;;;;;;10.16;53.09;99328.66;4447843;32;19981;-83
2022/04/06 00:41:07;;;;;;;;;;;;;;;10.09;53.40;99333.75;4447421;32;19981;-83
2022/04/06 00:43:34;;;;;;;;;;;;;;;10.20;53.35;99335.59;4446972;32;20038;-75
2022/04/06 00:46:01;;;;;;;;;;;;;;;10.30;53.13;99330.53;4447441;32;20358;-77
2022/04/06 00:48:28;;;;;;;;;;;;;;;10.35;53.12;99331.44;4446791;32;20032;-81
2022/04/06 00:50:55;;;;;;;;;;;;;;;10.24;53.44;99336.47;4447268;32;20001;-80
2022/04/06 00:53:23;;;;;;;;;;;;;;;10.34;52.87;99333.19;4445498;32;20322;-76
2022/04/06 00:55:50;;;;;;;;;;;;;;;10.06;53.74;99337.19;4432638;32;20311;-81
2022/04/06 00:58:17;;;;;;;;;;;;;;;10.18;53.41;99331.28;4447362;32;20049;-74
2022/04/06 01:00:44;;;;;;;;;;;;;;;10.18;53.15;99332.13;4432785;32;20057;-76
2022/04/06 01:03:10;;;;;;;;;;;;;;;10.20;52.96;99335.59;4447342;32;19993;-77
2022/04/06 01:05:37;;;;;;;;;;;;;;;10.10;53.14;99328.59;4447509;32;19989;-79
2022/04/06 01:08:05;;;;;;;;;;;;;;;10.04;53.64;99328.53;4446639;32;20005;-78
2022/04/06 01:10:31;;;;;;;;;;;;;;;10.09;53.80;99337.22;4447276;32;20008;-74
2022/04/06 01:12:58;;;;;;;;;;;;;;;10.04;53.78;99333.69;4447801;32;19989;-83
2022/04/06 01:15:26;;;;;;;;;;;;;;;10.01;53.95;99329.34;4433245;32;20025;-83
2022/04/06 01:17:52;;;;;;;;;;;;;;;10.13;53.50;99335.53;4447067;32;20310;-77
2022/04/06 01:20:19;;;;;;;;;;;;;;;10.11;53.83;99332.91;4447089;32;20401;-81
2022/04/06 01:22:46;;;;;;;;;;;;;;;10.00;54.69;99332.81;4446304;32;19980;-80
2022/04/06 01:25:13;;;;;;;;;;;;;;;9.68;55.99;99340.22;4445672;32;20050;-82
2022/04/06 01:27:39;;;;;;;;;;;;;;;9.98;55.76;99338.81;4431733;32;20000;-79
2022/04/06 01:30:07;;;;;;;;;;;;;;;10.17;55.41;99339.88;4446322;32;20009;-74
2022/04/06 01:32:35;;;;;;;;;;;;;;;10.27;54.78;99340.84;4447490;32;19993;-78
2022/04/06 01:35:03;;;;;;;;;;;;;;;10.28;54.93;99342.59;4447016;32;19985;-78
2022/04/06 01:37:31;;;;;;;;;;;;;;;10.27;54.97;99346.03;4448318;32;20014;-74
2022/04/06 01:39:58;;;;;;;;;;;;;;;10.24;55.28;99337.37;4447032;32;20009;-74
2022/04/06 01:42:24;;;;;;;;;;;;;;;10.21;55.50;99332.16;4446724;32;20046;-81
2022/04/06 01:44:52;;;;;;;;;;;;;;;10.39;55.06;99333.19;4445250;32;19985;-82
2022/04/06 01:47:19;;;;;;;;;;;;;;;10.36;55.09;99321.09;4446883;32;20045;-82
2022/04/06 01:52:32;;;;;;;;;;;;;;;10.47;54.85;99323.78;4445797;32;20049;-77
2022/04/06 01:55:06;;;;;;;;;;;;;;;10.33;55.20;99330.56;4445162;32;20266;-80
2022/04/06 01:57:33;;;;;;;;;;;;;;;10.42;54.90;99330.63;4446567;32;19977;-78
2022/04/06 02:00:00;;;;;;;;;;;;;;;10.29;55.07;99339.16;4436143;32;19997;-80
2022/04/06 02:02:30;;;;;;;;;;;;;;;10.35;54.97;99336.63;4445595;32;20040;-79
2022/04/06 02:04:58;;;;;;;;;;;;;;;10.43;54.87;99329.78;4432747;32;20022;-82
2022/04/06 02:07:26;;;;;;;;;;;;;;;10.25;55.38;99328.75;4446975;32;19973;-81
2022/04/06 02:09:53;;;;;;;;;;;;;;;10.41;55.12;99323.75;4446382;32;20007;-75
2022/04/06 02:12:22;;;;;;;;;;;;;;;10.43;54.78;99316.84;4446270;32;19989;-81
2022/04/06 02:14:49;;;;;;;;;;;;;;;10.41;55.11;99323.75;4443942;32;20331;-78
2022/04/06 02:17:16;;;;;;;;;;;;;;;10.14;56.07;99320.00;4446350;32;19993;-75
2022/04/06 02:19:43;;;;;;;;;;;;;;;10.32;55.38;99308.13;4446041;32;20037;-83
2022/04/06 02:22:10;;;;;;;;;;;;;;;10.38;55.01;99319.41;4445373;32;19995;-75
2022/04/06 02:24:38;;;;;;;;;;;;;;;10.50;54.50;99313.47;4423137;32;20038;-75
2022/04/06 02:27:05;;;;;;;;;;;;;;;10.24;54.90;99318.38;4446792;32;19993;-77
2022/04/06 02:29:32;;;;;;;;;;;;;;;10.34;54.53;99316.75;4446600;32;19993;-82
2022/04/06 02:31:59;;;;;;;;;;;;;;;10.38;54.93;99318.53;4446237;32;19985;-77
2022/04/06 02:34:26;;;;;;;;;;;;;;;10.49;54.67;99322.06;4446922;32;20007;-76
2022/04/06 02:36:53;;;;;;;;;;;;;;;10.46;54.73;99316.88;4446712;32;20499;-76
2022/04/06 02:39:20;;;;;;;;;;;;;;;10.42;54.01;99320.28;4446065;32;20008;-77
2022/04/06 02:41:47;;;;;;;;;;;;;;;10.33;54.43;99330.56;4446338;32;19989;-81
2022/04/06 02:44:15;;;;;;;;;;;;;;;10.34;54.55;99332.28;4445172;32;19992;-74
2022/04/06 02:46:43;;;;;;;;;;;;;;;10.40;54.61;99322.87;4446415;32;20454;-77
2022/04/06 02:49:10;;;;;;;;;;;;;;;10.40;53.92;99322.87;4447070;32;19978;-73
2022/04/06 02:51:37;;;;;;;;;;;;;;;10.38;53.61;99318.53;4445672;32;19977;-81
2022/04/06 02:54:05;;;;;;;;;;;;;;;10.33;53.86;99320.22;4438216;32;20763;-79
2022/04/06 02:56:32;;;;;;;;;;;;;;;10.27;54.26;99321.00;4445838;32;19998;-76
2022/04/06 02:59:00;;;;;;;;;;;;;;;10.27;54.04;99326.19;4443931;32;19985;-82
2022/04/06 03:01:27;;;;;;;;;;;;;;;10.11;54.65;99330.31;4446487;32;19997;-78
2022/04/06 03:03:54;;;;;;;;;;;;;;;10.15;54.33;99326.94;4445974;32;20020;-78
2022/04/06 03:06:21;;;;;;;;;;;;;;;10.22;54.09;99330.44;4446186;32;20334;-77
2022/04/06 03:08:47;;;;;;;;;;;;;;;10.21;53.98;99337.34;4446609;32;19994;-80
2022/04/06 03:11:14;;;;;;;;;;;;;;;10.15;53.92;99342.44;4446111;32;19996;-82
2022/04/06 03:13:41;;;;;;;;;;;;;;;10.13;53.85;99341.56;4446236;32;20037;-75
2022/04/06 03:16:08;;;;;;;;;;;;;;;9.99;54.52;99335.41;4446509;32;19981;-75
2022/04/06 03:18:35;;;;;;;;;;;;;;;10.33;53.56;99340.91;4431537;32;20001;-80
2022/04/06 03:21:02;;;;;;;;;;;;;;;10.25;53.98;99344.25;4446644;32;19989;-84
2022/04/06 03:23:29;;;;;;;;;;;;;;;10.20;54.39;99342.47;4438195;32;20022;-78
2022/04/06 03:25:55;;;;;;;;;;;;;;;10.16;54.89;99339.00;4437263;32;20006;-77
2022/04/06 03:28:22;;;;;;;;;;;;;;;10.07;55.12;99336.31;4138902;32;10012193;-76
2022/04/06 03:30:49;;;;;;;;;;;;;;;10.16;54.67;99339.00;4444522;32;20033;-79
2022/04/06 03:33:16;;;;;;;;;;;;;;;10.12;54.96;99339.84;4446465;32;20041;-80
2022/04/06 03:35:43;;;;;;;;;;;;;;;10.19;54.99;99340.75;4446230;32;19996;-77
2022/04/06 03:38:10;;;;;;;;;;;;;;;10.16;55.55;99333.81;4431750;32;19991;-73
2022/04/06 03:40:39;;;;;;;;;;;;;;;10.17;55.45;99335.56;4445448;32;19980;-81
2022/04/06 03:43:06;;;;;;;;;;;;;;;10.28;55.20;99333.13;4443462;32;20000;-71
2022/04/06 03:45:32;;;;;;;;;;;;;;;10.27;55.23;99330.50;4445101;32;19999;-82
2022/04/06 03:47:59;;;;;;;;;;;;;;;10.30;55.06;99327.94;4444893;32;20039;-79
2022/04/06 03:50:26;;;;;;;;;;;;;;;10.15;55.33;99332.09;4431851;32;20000;-80
2022/04/06 03:52:53;;;;;;;;;;;;;;;10.31;54.84;99337.47;4443797;32;20746;-73
2022/04/06 03:55:22;;;;;;;;;;;;;;;10.19;55.55;99344.19;4443291;32;20011;-79
2022/04/06 03:57:49;;;;;;;;;;;;;;;10.23;55.38;99340.78;4445634;32;19961;-72
2022/04/06 04:00:16;;;;;;;;;;;;;;;10.11;55.87;99343.25;4445963;32;20028;-79
2022/04/06 04:02:43;;;;;;;;;;;;;;;10.16;55.88;99344.16;4446123;32;20005;-82
2022/04/06 04:05:10;;;;;;;;;;;;;;;10.24;55.71;99352.87;4445393;32;19984;-78
2022/04/06 04:07:37;;;;;;;;;;;;;;;10.16;56.13;99341.59;4445585;32;19985;-85
2022/04/06 04:10:06;;;;;;;;;;;;;;;10.33;55.62;99341.75;4445318;32;20008;-83
2022/04/06 04:12:33;;;;;;;;;;;;;;;10.42;55.35;99341.00;4431170;32;20362;-77
2022/04/06 04:15:00;;;;;;;;;;;;;;;10.16;56.53;99343.31;4431314;32;19985;-75
2022/04/06 04:17:27;;;;;;;;;;;;;;;10.29;56.32;99349.50;4445209;32;19969;-79
2022/04/06 04:19:53;;;;;;;;;;;;;;;10.28;56.45;99345.19;4445091;32;20047;-75
2022/04/06 04:22:20;;;;;;;;;;;;;;;10.35;56.46;99349.56;4427353;32;19986;-77
2022/04/06 04:24:47;;;;;;;;;;;;;;;10.46;56.25;99345.31;4429936;32;19987;-72
2022/04/06 04:27:15;;;;;;;;;;;;;;;10.42;56.41;99346.16;4429366;32;20341;-78
2022/04/06 04:29:42;;;;;;;;;;;;;;;10.49;56.29;99347.94;4438453;32;20047;-76
2022/04/06 04:32:14;;;;;;;;;;;;;;;10.48;56.53;99338.47;4444670;32;19989;-77
2022/04/06 04:34:43;;;;;;;;;;;;;;;10.55;56.51;99342.81;4442039;32;20095;-80
2022/04/06 04:37:10;;;;;;;;;;;;;;;10.65;56.19;99349.78;4442913;32;19981;-81
2022/04/06 04:39:37;;;;;;;;;;;;;;;10.60;56.57;99346.31;4444822;32;20423;-78
2022/04/06 04:42:04;;;;;;;;;;;;;;;10.54;56.95;99361.81;4444466;32;19997;-73
2022/04/06 04:44:31;;;;;;;;;;;;;;;10.67;56.73;99355.88;4443740;32;19995;-75
2022/04/06 04:46:58;;;;;;;;;;;;;;;10.70;56.84;99362.78;4443625;32;20034;-74
2022/04/06 04:49:26;;;;;;;;;;;;;;;10.68;56.95;99364.50;4447053;32;20025;-82
2022/04/06 04:51:53;;;;;;;;;;;;;;;10.76;56.97;99354.22;4444674;32;19977;-81
2022/04/06 04:54:24;;;;;;;;;;;;;;;10.81;56.88;99361.13;4445461;32;20019;-72
2022/04/06 04:56:56;;;;;;;;;;;;;;;10.82;57.32;99362.03;4446774;32;19995;-76
2022/04/06 04:59:25;;;;;;;;;;;;;;;10.93;57.13;99362.94;4432066;32;20322;-72
2022/04/06 05:01:52;;;;;;;;;;;;;;;11.06;56.75;99356.13;4445725;32;20096;-79
2022/04/06 05:04:19;;;;;;;;;;;;;;;11.09;56.94;99369.97;4446424;32;19981;-79
2022/04/06 05:06:46;;;;;;;;;;;;;;;11.03;56.99;99375.09;4432012;32;19977;-78
2022/04/06 05:09:17;;;;;;;;;;;;;;;11.09;57.16;99369.97;4444764;32;20038;-70
2022/04/06 05:11:44;;;;;;;;;;;;;;;11.11;56.81;99368.25;4446098;32;19996;-80
2022/04/06 05:14:11;;;;;;;;;;;;;;;11.08;57.17;99376.00;4446592;32;20333;-81
2022/04/06 05:16:38;;;;;;;;;;;;;;;11.21;56.69;99370.91;4446842;32;19987;-81
2022/04/06 05:19:05;;;;;;;;;;;;;;;11.03;58.50;99372.50;4443343;32;20036;-72
2022/04/06 05:21:32;;;;;;;;;;;;;;;11.34;57.55;99367.53;4446380;32;20023;-79
2022/04/06 05:23:59;;;;;;;;;;;;;;;11.35;57.67;99374.44;4442604;32;19993;-72
2022/04/06 05:26:26;;;;;;;;;;;;;;;11.55;57.02;99372.81;4446306;32;19981;-76
2022/04/06 05:28:53;;;;;;;;;;;;;;;11.66;56.82;99369.41;4445961;32;19989;-76
2022/04/06 05:31:21;;;;;;;;;;;;;;;11.74;56.21;99378.06;4446031;32;20026;-77
2022/04/06 05:33:48;;;;;;;;;;;;;;;11.80;56.28;99372.91;4445273;32;20040;-78
2022/04/06 05:36:18;;;;;;;;;;;;;;;11.87;55.61;99377.31;4423953;32;19973;-77
2022/04/06 05:38:45;;;;;;;;;;;;;;;12.03;55.73;99380.81;4439923;32;19993;-72
2022/04/06 05:41:12;;;;;;;;;;;;;;;11.93;56.02;99394.59;4438812;32;19993;-78
2022/04/06 05:43:39;;;;;;;;;;;;;;;11.90;56.64;99395.47;4438510;32;19977;-77
2022/04/06 05:46:06;;;;;;;;;;;;;;;12.06;56.33;99402.44;4445611;32;19989;-77
2022/04/06 05:48:34;;;;;;;;;;;;;;;12.33;55.72;99400.75;4445638;32;19985;-72
2022/04/06 05:51:01;;;;;;;;;;;;;;;12.41;55.41;99393.88;4440694;32;19989;-73
2022/04/06 05:53:28;;;;;;;;;;;;;;;12.52;55.24;99401.66;4442895;32;20060;-75
2022/04/06 05:55:55;;;;;;;;;;;;;;;12.64;54.89;99406.87;4442863;32;19995;-79
2022/04/06 05:58:21;;;;;;;;;;;;;;;12.51;56.29;99403.41;4444648;32;20474;-73
2022/04/06 06:00:48;;;;;;;;;;;;;;;12.63;55.67;99410.31;4443392;32;20042;-74
2022/04/06 06:03:15;;;;;;;;;;;;;;;12.55;55.97;99406.84;4444842;32;19992;-79
2022/04/06 06:05:45;;;;;;;;;;;;;;;12.56;55.88;99404.25;4431331;32;20566;-79
2022/04/06 06:08:18;;;;;;;;;;;;;;;12.85;55.16;99405.97;4444211;32;20012;-75
2022/04/06 06:10:44;;;;;;;;;;;;;;;12.93;55.07;99404.25;4445650;32;19993;-79
2022/04/06 06:13:11;;;;;;;;;;;;;;;13.02;55.31;99409.47;4439235;32;19981;-77
2022/04/06 06:15:38;;;;;;;;;;;;;;;13.07;54.93;99401.66;4444302;32;19973;-82
2022/04/06 06:18:05;;;;;;;;;;;;;;;13.23;54.14;99403.34;4445277;32;20026;-83
2022/04/06 06:20:32;;;;;;;;;;;;;;;13.46;53.49;99400.75;4446985;32;20064;-72
2022/04/06 06:22:59;;;;;;;;;;;;;;;13.56;53.42;99405.91;4446075;32;19984;-71
2022/04/06 06:25:26;;;;;;;;;;;;;;;13.68;52.27;99405.87;4439354;32;19998;-78
2022/04/06 06:27:53;;;;;;;;;;;;;;;13.59;53.12;99401.59;4445112;32;19981;-85
2022/04/06 06:30:20;;;;;;;;;;;;;;;13.76;52.82;99398.91;4445773;32;19981;-79
2022/04/06 06:32:47;;;;;;;;;;;;;;;13.75;52.87;99399.75;4442666;32;20466;-75
2022/04/06 06:35:14;;;;;;;;;;;;;;;13.88;52.67;99404.06;4446217;32;19981;-81
2022/04/06 06:37:48;;;;;;;;;;;;;;;14.29;51.85;99397.75;4445370;32;20012;-70
2022/04/06 06:40:16;;;;;;;;;;;;;;;14.70;50.62;99401.84;4444640;32;20336;-76
2022/04/06 06:42:43;;;;;;;;;;;;;;;14.85;50.36;99404.34;4410757;32;20068;-76
2022/04/06 06:45:10;;;;;;;;;;;;;;;15.24;48.98;99404.84;4417188;32;19982;-78
2022/04/06 06:47:37;;;;;;;;;;;;;;;15.53;47.59;99395.88;4429032;32;20036;-80
2022/04/06 06:50:04;;;;;;;;;;;;;;;15.91;47.32;99397.19;4429221;32;19989;-79
2022/04/06 06:52:34;;;;;;;;;;;;;;;16.35;46.00;99393.13;4428106;32;20004;-80
2022/04/06 06:55:01;;;;;;;;;;;;;;;16.70;45.39;99393.44;4424290;32;20016;-80
2022/04/06 06:57:28;;;;;;;;;;;;;;;17.13;44.25;99391.87;4421544;32;20040;-74
2022/04/06 06:59:55;;;;;;;;;;;;;;;17.44;43.29;99384.31;4426428;32;19982;-84
2022/04/06 07:02:22;;;;;;;;;;;;;;;17.64;41.80;99382.19;4423794;32;20420;-77
2022/04/06 07:04:49;;;;;;;;;;;;;;;18.01;40.99;99385.81;4412686;32;20602;-79
2022/04/06 07:07:16;;;;;;;;;;;;;;;18.38;40.90;99385.88;4413837;32;20369;-76
2022/04/06 07:09:43;;;;;;;;;;;;;;;18.92;37.30;99388.09;4415417;32;19989;-78
2022/04/06 07:12:10;;;;;;;;;;;;;;;18.76;38.55;99381.50;4415246;32;20041;-75
2022/04/06 07:14:37;;;;;;;;;;;;;;;18.80;37.27;99391.03;4403981;32;19966;-77
2022/04/06 07:17:04;;;;;;;;;;;;;;;18.82;38.30;99376.09;4414982;32;19986;-76
2022/04/06 07:19:31;;;;;;;;;;;;;;;19.02;36.64;99383.47;4413656;32;20005;-75
2022/04/06 07:21:58;;;;;;;;;;;;;;;18.90;36.46;99395.12;4412852;32;20057;-81
2022/04/06 07:24:25;;;;;;;;;;;;;;;19.57;36.44;99386.38;4413688;32;20028;-82
2022/04/06 07:26:52;;;;;;;;;;;;;;;19.62;36.40;99379.22;4412885;32;19990;-77
2022/04/06 07:29:18;;;;;;;;;;;;;;;19.54;36.70;99386.47;4413347;32;19985;-77
2022/04/06 07:31:45;;;;;;;;;;;;;;;19.67;34.13;99383.47;4412387;32;20601;-83
2022/04/06 07:34:12;;;;;;;;;;;;;;;19.75;35.13;99380.66;4413741;32;19984;-75
2022/04/06 07:36:39;;;;;;;;;;;;;;;19.75;35.79;99391.16;4415182;32;20028;-79
2022/04/06 07:39:06;;;;;;;;;;;;;;;19.44;35.45;99391.97;4415072;32;20005;-80
2022/04/06 07:41:33;;;;;;;;;;;;;;;19.20;35.52;99401.34;4415048;32;20027;-76
2022/04/06 07:44:00;;;;;;;;;;;;;;;19.08;36.75;99398.19;4439396;32;19977;-81
2022/04/06 07:46:26;;;;;;;;;;;;;;;19.43;36.43;99395.50;4445925;32;19989;-81
2022/04/06 07:48:53;;;;;;;;;;;;;;;19.96;36.92;99389.66;4431058;32;20266;-80
2022/04/06 07:51:20;;;;;;;;;;;;;;;19.90;36.87;99390.69;4445270;32;20384;-74
2022/04/06 07:53:47;;;;;;;;;;;;;;;19.68;36.28;99392.22;4445410;32;20047;-82
2022/04/06 07:56:18;;;;;;;;;;;;;;;19.95;35.74;99391.44;4445848;32;19994;-78
2022/04/06 07:58:45;;;;;;;;;;;;;;;19.63;35.13;99394.09;4443408;32;20327;-79
2022/04/06 08:01:12;;;;;;;;;;;;;;;19.52;36.83;99392.59;4444591;32;20032;-80
2022/04/06 08:03:40;;;;;;;;;;;;;;;19.67;36.95;99398.37;4445670;32;19981;-75
2022/04/06 08:06:07;;;;;;;;;;;;;;;19.16;36.82;99402.34;4445114;32;20001;-81
2022/04/06 08:08:33;;;;;;;;;;;;;;;19.20;36.91;99403.12;4445150;32;19999;-80
2022/04/06 08:11:00;;;;;;;;;;;;;;;19.59;36.10;99395.06;4445864;32;20353;-76
2022/04/06 08:13:27;;;;;;;;;;;;;;;19.52;38.46;99397.84;4444184;32;20000;-81
2022/04/06 08:15:55;;;;;;;;;;;;;;;19.35;39.04;99399.22;4444589;32;20007;-82
2022/04/06 08:18:22;;;;;;;;;;;;;;;19.72;37.31;99393.88;4447329;32;19997;-82
2022/04/06 08:20:49;;;;;;;;;;;;;;;20.14;36.38;99389.13;4447397;32;21138;-77
2022/04/06 08:23:20;;;;;;;;;;;;;;;20.60;34.88;99392.09;4433173;32;20368;-78
2022/04/06 08:25:49;;;;;;;;;;;;;;;20.60;35.62;99392.09;4433588;32;19989;-80
2022/04/06 08:28:16;;;;;;;;;;;;;;;20.90;34.06;99385.84;4447301;32;20022;-81
2022/04/06 08:30:43;;;;;;;;;;;;;;;20.38;37.38;99382.22;4447339;32;20211;-81
2022/04/06 08:33:11;;;;;;;;;;;;;;;20.61;37.93;99388.56;4447051;32;20034;-83
2022/04/06 08:35:38;;;;;;;;;;;;;;;20.72;35.85;99383.81;4447759;32;19981;-81
2022/04/06 08:38:05;;;;;;;;;;;;;;;21.34;34.07;99391.34;4432449;32;19981;-75
2022/04/06 08:44:13;;;;;;;;;;;;;;;20.48;37.93;99388.06;4432191;32;19992;-82
2022/04/06 08:46:40;;;;;;;;;;;;;;;20.85;36.13;99386.91;4447366;32;19977;-81
2022/04/06 08:49:07;;;;;;;;;;;;;;;21.14;34.91;99383.28;4447316;32;20001;-77
2022/04/06 08:51:34;;;;;;;;;;;;;;;20.92;35.55;99398.94;4431651;32;20031;-75
2022/04/06 08:54:01;;;;;;;;;;;;;;;21.17;35.14;99393.72;4433253;32;19969;-76
2022/04/06 08:56:28;;;;;;;;;;;;;;;20.90;35.57;99388.47;4446756;32;19993;-83
2022/04/06 08:58:55;;;;;;;;;;;;;;;21.11;33.59;99388.66;4446684;32;20418;-80
2022/04/06 09:01:22;;;;;;;;;;;;;;;21.10;33.75;99384.31;4447016;32;19985;-76
2022/04/06 09:03:49;;;;;;;;;;;;;;;21.10;34.70;99381.69;4447081;32;20452;-78
2022/04/06 09:06:16;;;;;;;;;;;;;;;20.73;37.01;99380.28;4446952;32;20346;-78
2022/04/06 09:08:48;;;;;;;;;;;;;;;21.26;33.96;99372.34;4447159;32;20044;-83
2022/04/06 09:11:15;;;;;;;;;;;;;;;21.58;32.92;99379.12;4446179;32;20403;-80
2022/04/06 09:13:44;;;;;;;;;;;;;;;21.49;34.12;99378.59;4432049;32;19977;-77
2022/04/06 09:16:12;;;;;;;;;;;;;;;21.25;33.44;99372.38;4446681;32;19993;-78
2022/04/06 09:18:40;;;;;;;;;;;;;;;21.52;35.65;99373.22;4433106;32;20060;-76
2022/04/06 09:21:08;;;;;;;;;;;;;;;20.93;35.75;99373.47;4445912;32;19985;-79
2022/04/06 09:23:35;;;;;;;;;;;;;;;21.23;35.05;99375.06;4447263;32;20310;-75
2022/04/06 09:26:03;;;;;;;;;;;;;;;20.84;35.52;99367.63;4431660;32;19996;-80
2022/04/06 09:28:38;;;;;;;;;;;;;;;21.05;35.38;99367.81;4427765;32;19981;-79
2022/04/06 09:31:06;;;;;;;;;;;;;;;21.01;34.46;99371.47;4431197;32;20504;-79
2022/04/06 09:33:34;;;;;;;;;;;;;;;20.88;36.33;99366.63;4429151;32;20022;-78
2022/04/06 09:36:01;;;;;;;;;;;;;;;21.86;33.06;99361.41;4431586;32;19993;-78
2022/04/06 09:38:31;;;;;;;;;;;;;;;22.07;33.27;99352.69;4419590;32;20326;-75
2022/04/06 09:41:06;;;;;;;;;;;;;;;21.70;35.48;99356.75;4446975;32;19989;-75
2022/04/06 09:43:33;;;;;;;;;;;;;;;21.62;34.43;99348.25;4447324;32;19986;-80
2022/04/06 09:49:13;;;;;;;;;;;;;;;21.91;33.06;99338.37;4446473;32;20000;-83
2022/04/06 09:51:41;;;;;;;;;;;;;;;22.05;32.18;99342.22;4445870;32;19977;-79
2022/04/06 09:54:09;;;;;;;;;;;;;;;22.17;31.24;99335.63;4447136;32;19981;-80
2022/04/06 09:56:36;;;;;;;;;;;;;;;21.75;33.66;99332.84;4446383;32;20027;-80
2022/04/06 09:59:08;;;;;;;;;;;;;;;21.55;34.17;99325.69;4439814;32;19997;-80
2022/04/06 10:01:36;;;;;;;;;;;;;;;22.16;32.28;99322.50;4432573;32;20079;-82
2022/04/06 10:04:04;;;;;;;;;;;;;;;22.27;31.24;99315.03;4432458;32;20017;-80
2022/04/06 10:06:32;;;;;;;;;;;;;;;22.32;32.71;99322.75;4446127;32;20441;-77
2022/04/06 10:08:59;;;;;;;;;;;;;;;21.80;34.15;99326.50;4461191;32;20390;-84
2022/04/06 10:11:27;;;;;;;;;;;;;;;21.79;33.42;99321.25;4451937;32;20032;-80
2022/04/06 10:13:57;;;;;;;;;;;;;;;21.53;34.42;99324.88;4449470;32;19973;-81
2022/04/06 10:16:28;;;;;;;;;;;;;;;22.00;34.77;99312.53;4433166;32;19985;-77
2022/04/06 10:18:55;;;;;;;;;;;;;;;22.15;32.57;99300.53;4416363;32;20031;-78
2022/04/06 10:21:24;;;;;;;;;;;;;;;22.15;30.15;99305.81;4414771;32;19982;-81
2022/04/06 10:23:57;;;;;;;;;;;;;;;22.31;29.98;99305.22;4021775;32;10000478;-84
2022/04/06 10:26:43;;;;;;;;;;;;;;;21.85;29.12;99301.72;4431669;32;19992;-81
2022/04/06 10:29:10;;;;;;;;;;;;;;;21.09;32.66;99301.00;4446870;32;19989;-78
2022/04/06 10:31:37;;;;;;;;;;;;;;;20.78;32.97;99302.06;4447564;32;20018;-83
2022/04/06 10:34:21;;;;;;;;;;;;;;;20.68;32.62;99295.41;4448232;32;19977;-81
2022/04/06 10:37:07;;;;;;;;;;;;;;;20.62;33.10;99290.38;4462379;32;19976;-76
2022/04/06 10:39:54;;;;;;;;;;;;;;;20.41;35.04;99291.87;4456079;32;20051;-79
2022/04/06 10:42:27;;;;;;;;;;;;;;;20.91;32.61;99292.00;4445949;32;19981;-83
2022/04/06 10:44:55;;;;;;;;;;;;;;;20.82;33.69;99287.91;4446702;32;20355;-76
2022/04/06 10:47:22;;;;;;;;;;;;;;;21.01;32.32;99288.12;4457768;32;19996;-80
2022/04/06 10:50:07;;;;;;;;;;;;;;;20.69;33.75;99286.59;4461043;32;20015;-79
2022/04/06 10:52:34;;;;;;;;;;;;;;;20.29;33.24;99280.00;4461112;32;20003;-76
2022/04/06 10:55:08;;;;;;;;;;;;;;;20.56;32.54;99280.03;4461570;32;20370;-77
2022/04/06 10:57:54;;;;;;;;;;;;;;;20.34;34.91;99285.97;4443904;32;20431;-75
2022/04/06 11:00:21;;;;;;;;;;;;;;;20.69;35.88;99281.34;4461377;32;20037;-75
2022/04/06 11:02:52;;;;;;;;;;;;;;;20.76;34.15;99274.09;4462158;32;20030;-79
2022/04/06 11:05:39;;;;;;;;;;;;;;;21.39;34.05;99266.63;4447668;32;20345;-75
2022/04/06 11:11:10;;;;;;;;;;;;;;;21.00;34.33;99264.50;4448804;32;20018;-82
2022/04/06 11:13:38;;;;;;;;;;;;;;;21.00;36.11;99254.81;4441841;32;20068;-78
2022/04/06 11:16:05;;;;;;;;;;;;;;;21.43;33.33;99248.00;4444331;32;20031;-80
2022/04/06 11:18:44;;;;;;;;;;;;;;;21.16;34.28;99246.37;4445022;32;19985;-78
2022/04/06 11:21:12;;;;;;;;;;;;;;;21.25;35.77;99236.38;4445548;32;20326;-82
2022/04/06 11:23:38;;;;;;;;;;;;;;;21.86;32.30;99229.66;4441153;32;19981;-76
2022/04/06 11:26:05;;;;;;;;;;;;;;;21.66;33.45;99233.09;4430378;32;19981;-76
2022/04/06 11:28:33;;;;;;;;;;;;;;;21.14;33.71;99235.91;4430708;32;19973;-77
2022/04/06 11:31:03;;;;;;;;;;;;;;;21.18;33.21;99216.44;4430850;32;19986;-75
2022/04/06 11:33:40;;;;;;;;;;;;;;;21.60;33.45;99213.09;4411951;32;20061;-78
2022/04/06 11:36:11;;;;;;;;;;;;;;;21.28;34.45;99223.09;4415859;32;20286;-75
2022/04/06 11:38:37;;;;;;;;;;;;;;;20.42;35.63;99218.25;4429907;32;20009;-76
2022/04/06 11:41:04;;;;;;;;;;;;;;;20.99;35.90;99210.13;4416049;32;20004;-76
2022/04/06 11:43:36;;;;;;;;;;;;;;;21.15;35.48;99206.00;4415563;32;20880;-79
2022/04/06 11:46:02;;;;;;;;;;;;;;;21.10;35.13;99197.44;4428590;32;20023;-73
2022/04/06 11:48:39;;;;;;;;;;;;;;;21.27;34.85;99197.66;4445628;32;19970;-83
2022/04/06 11:51:06;;;;;;;;;;;;;;;21.31;35.48;99186.13;4433052;32;20001;-74
2022/04/06 11:53:34;;;;;;;;;;;;;;;21.23;33.35;99182.06;4449642;32;19981;-73
2022/04/06 11:56:01;;;;;;;;;;;;;;;21.27;32.46;99179.25;4450815;32;20004;-75
2022/04/06 11:58:32;;;;;;;;;;;;;;;21.25;32.68;99181.09;4450345;32;19969;-74
2022/04/06 12:01:02;;;;;;;;;;;;;;;20.97;33.79;99173.38;4450524;32;19997;-76
2022/04/06 12:03:30;;;;;;;;;;;;;;;21.29;34.15;99161.63;4450168;32;20406;-80
2022/04/06 12:05:57;;;;;;;;;;;;;;;21.17;33.28;99162.09;4450827;32;19981;-77
2022/04/06 12:08:24;;;;;;;;;;;;;;;21.39;33.11;99156.03;4450825;32;19977;-74
2022/04/06 12:10:53;;;;;;;;;;;;;;;21.39;33.74;99140.22;4449960;32;19989;-73
2022/04/06 12:13:21;;;;;;;;;;;;;;;21.47;33.76;99139.00;4449995;32;20846;-75
2022/04/06 12:15:49;;;;;;;;;;;;;;;21.66;33.74;99139.09;4436243;32;19996;-81
2022/04/06 12:18:19;;;;;;;;;;;;;;;21.28;35.55;99123.06;4437088;32;19981;-75
2022/04/06 12:20:46;;;;;;;;;;;;;;;21.42;30.08;99129.59;4449971;32;20047;-81
2022/04/06 12:23:13;;;;;;;;;;;;;;;21.74;31.04;99115.09;4422818;32;19991;-78
2022/04/06 12:25:41;;;;;;;;;;;;;;;21.59;30.22;99116.59;4450022;32;19985;-75
2022/04/06 12:28:11;;;;;;;;;;;;;;;21.74;30.26;99115.97;4142615;32;10004506;-79
2022/04/06 12:30:51;;;;;;;;;;;;;;;21.90;31.38;99116.19;4450725;32;20646;-82
2022/04/06 12:33:37;;;;;;;;;;;;;;;21.50;32.99;99116.94;4450262;32;20031;-79
2022/04/06 12:36:07;;;;;;;;;;;;;;;21.50;32.26;99106.41;4450157;32;19989;-81
2022/04/06 12:38:35;;;;;;;;;;;;;;;22.04;30.36;99102.41;4436143;32;20008;-83
2022/04/06 12:41:05;;;;;;;;;;;;;;;21.44;32.01;99096.13;4433488;32;20048;-74
2022/04/06 12:43:46;;;;;;;;;;;;;;;21.71;32.55;99089.75;4457450;32;20051;-81
2022/04/06 12:46:13;;;;;;;;;;;;;;;21.68;30.59;99079.34;4460223;32;19985;-80
2022/04/06 12:48:40;;;;;;;;;;;;;;;21.79;32.34;99082.38;4456191;32;19989;-72
2022/04/06 12:51:27;;;;;;;;;;;;;;;21.77;30.65;99073.69;4464945;32;19999;-74
2022/04/06 12:53:53;;;;;;;;;;;;;;;21.45;30.87;99075.00;4464324;32;19985;-73
2022/04/06 12:56:23;;;;;;;;;;;;;;;21.82;31.03;99065.56;4463434;32;20447;-76
2022/04/06 12:59:09;;;;;;;;;;;;;;;22.03;30.00;99063.81;4465490;32;19977;-75
2022/04/06 13:01:43;;;;;;;;;;;;;;;21.63;31.44;99062.00;4463850;32;19990;-73
2022/04/06 13:04:10;;;;;;;;;;;;;;;21.65;30.06;99058.38;4461883;32;20011;-74